Time;durP1;ratioP1;P1;durP2;ratioP2;P2;SDS_P1;SDS_P2;PMS_P1;PMS_P2;Temp;Humidity;BMP_temperature;BMP_pressure;BME280_temperature;BME280_humidity;BME280_pressure;Samples;Min_cycle;Max_cycle;Signal;HPM_P1;HPM_P2
2023/08/03 00:00:19;;;;;;;1.13;0.40;;;16.40;99.90;;;;;;5000687;28;20060;-36
2023/08/03 00:02:48;;;;;;;2.42;0.47;;;16.40;99.90;;;;;;5006262;28;20137;-36
2023/08/03 00:05:17;;;;;;;4.35;0.80;;;16.30;99.90;;;;;;5005831;28;20069;-36
2023/08/03 00:07:43;;;;;;;2.00;0.65;;;16.30;99.90;;;;;;5002353;28;20060;-36
2023/08/03 00:10:09;;;;;;;3.20;0.60;;;16.30;99.90;;;;;;5004758;28;20054;-36
2023/08/03 00:12:35;;;;;;;3.15;0.55;;;16.30;99.90;;;;;;5009061;28;20099;-36
2023/08/03 00:15:00;;;;;;;2.50;0.60;;;16.30;99.90;;;;;;5002110;28;20062;-36
2023/08/03 00:17:26;;;;;;;1.80;0.50;;;16.30;99.90;;;;;;5004147;28;20045;-35
2023/08/03 00:19:52;;;;;;;1.25;0.47;;;16.20;99.90;;;;;;5005878;28;20049;-37
2023/08/03 00:22:17;;;;;;;2.42;0.50;;;16.20;99.90;;;;;;5005650;28;20053;-36
2023/08/03 00:24:43;;;;;;;2.30;0.50;;;16.30;99.90;;;;;;4983083;28;20057;-36
2023/08/03 00:27:09;;;;;;;1.88;0.30;;;16.20;99.90;;;;;;5005060;28;20060;-36
2023/08/03 00:29:34;;;;;;;2.67;0.40;;;16.20;99.90;;;;;;4996887;28;21447;-36
2023/08/03 00:32:00;;;;;;;2.83;0.40;;;16.20;99.90;;;;;;5003674;28;20054;-36
2023/08/03 00:34:27;;;;;;;1.38;0.40;;;16.20;99.90;;;;;;5004945;28;20144;-36
2023/08/03 00:36:52;;;;;;;1.60;0.40;;;16.30;99.90;;;;;;5003821;28;20076;-36
2023/08/03 00:39:18;;;;;;;2.50;0.40;;;16.20;99.90;;;;;;5002990;28;20423;-36
2023/08/03 00:41:44;;;;;;;0.98;0.30;;;16.20;99.90;;;;;;5002115;28;20064;-36
2023/08/03 00:44:09;;;;;;;1.77;0.40;;;16.20;99.90;;;;;;5005693;28;20474;-35
2023/08/03 00:46:35;;;;;;;1.50;0.25;;;16.20;99.90;;;;;;5009884;28;20406;-36
2023/08/03 00:49:01;;;;;;;0.77;0.20;;;16.20;99.90;;;;;;5000846;28;20053;-36
2023/08/03 00:51:28;;;;;;;1.63;0.35;;;16.20;99.90;;;;;;5002209;28;20045;-36
2023/08/03 00:53:54;;;;;;;1.35;0.20;;;16.20;99.90;;;;;;5005777;28;20065;-36
2023/08/03 00:56:20;;;;;;;1.67;0.73;;;16.20;99.90;;;;;;5007146;28;20578;-36
2023/08/03 00:58:46;;;;;;;1.27;0.20;;;16.20;99.90;;;;;;5009652;28;20052;-36
2023/08/03 01:01:11;;;;;;;0.52;0.30;;;16.20;99.90;;;;;;5013238;28;20084;-36
2023/08/03 01:03:37;;;;;;;1.85;0.20;;;16.20;99.90;;;;;;4993322;28;20042;-36
2023/08/03 01:06:03;;;;;;;1.63;0.20;;;16.20;99.90;;;;;;5008179;28;20049;-35
2023/08/03 01:08:29;;;;;;;0.88;0.20;;;16.20;99.90;;;;;;5005170;28;20623;-36
2023/08/03 01:10:54;;;;;;;0.50;0.20;;;16.20;99.90;;;;;;5013621;28;20483;-36
2023/08/03 01:13:21;;;;;;;0.40;0.20;;;16.20;99.90;;;;;;5010239;28;20069;-36
2023/08/03 01:15:47;;;;;;;1.17;0.20;;;16.20;99.90;;;;;;5006436;28;21199;-36
2023/08/03 01:18:13;;;;;;;0.30;0.20;;;16.20;99.90;;;;;;5006503;28;20111;-36
2023/08/03 01:20:41;;;;;;;4.32;0.40;;;16.20;99.90;;;;;;5004426;28;20049;-36
2023/08/03 01:23:08;;;;;;;1.52;0.20;;;16.20;99.90;;;;;;5009274;28;20642;-36
2023/08/03 01:25:34;;;;;;;1.55;0.30;;;16.20;99.90;;;;;;5008646;28;20136;-35
2023/08/03 01:28:02;;;;;;;2.25;0.43;;;16.20;99.90;;;;;;5009960;28;20549;-36
2023/08/03 01:30:28;;;;;;;1.20;0.20;;;16.20;99.90;;;;;;5017071;28;20046;-37
2023/08/03 01:32:54;;;;;;;1.00;0.55;;;16.20;99.90;;;;;;5008827;28;20069;-36
2023/08/03 01:35:19;;;;;;;1.85;0.30;;;16.20;99.90;;;;;;5010094;28;20073;-36
2023/08/03 01:37:45;;;;;;;0.95;0.32;;;16.20;99.90;;;;;;5005278;28;20113;-36
2023/08/03 01:40:11;;;;;;;1.05;0.52;;;16.20;99.90;;;;;;5005486;28;20042;-36
2023/08/03 01:42:37;;;;;;;0.75;0.50;;;16.20;99.90;;;;;;5005613;28;20058;-36
2023/08/03 01:45:06;;;;;;;1.40;0.70;;;16.20;99.90;;;;;;5004115;28;20062;-35
2023/08/03 01:47:33;;;;;;;1.52;0.80;;;16.20;99.90;;;;;;5006830;28;20064;-37
2023/08/03 01:49:58;;;;;;;2.10;0.60;;;16.20;99.90;;;;;;5008865;28;20065;-35
2023/08/03 01:52:24;;;;;;;2.47;0.65;;;16.20;99.90;;;;;;5005289;28;20419;-36
2023/08/03 01:54:50;;;;;;;2.58;0.90;;;16.20;99.90;;;;;;5005801;28;20179;-35
2023/08/03 01:57:17;;;;;;;3.03;0.70;;;16.20;99.90;;;;;;5005973;28;20061;-36
2023/08/03 01:59:43;;;;;;;2.60;0.88;;;16.20;99.90;;;;;;5006531;28;20062;-36
2023/08/03 02:02:09;;;;;;;2.83;0.90;;;16.20;99.90;;;;;;5004984;28;20054;-36
2023/08/03 02:04:35;;;;;;;4.07;1.08;;;16.20;99.90;;;;;;5003017;28;20072;-36
2023/08/03 02:07:08;;;;;;;2.83;1.00;;;16.20;99.90;;;;;;5009813;28;20728;-36
2023/08/03 02:09:34;;;;;;;4.47;1.20;;;16.20;99.90;;;;;;5005267;28;20191;-37
2023/08/03 02:12:00;;;;;;;2.95;1.58;;;16.20;99.90;;;;;;5006845;28;20132;-36
2023/08/03 02:14:25;;;;;;;3.42;1.20;;;16.20;99.90;;;;;;5008103;28;20046;-36
2023/08/03 02:16:51;;;;;;;5.40;1.60;;;16.20;99.90;;;;;;5004993;28;20049;-36
2023/08/03 02:19:17;;;;;;;6.20;1.60;;;16.20;99.90;;;;;;5007360;28;20419;-35
2023/08/03 02:21:42;;;;;;;3.67;1.55;;;16.20;99.90;;;;;;5004135;28;20519;-37
2023/08/03 02:24:08;;;;;;;5.88;1.70;;;16.30;99.90;;;;;;5005849;28;20080;-35
2023/08/03 02:26:33;;;;;;;4.60;1.30;;;16.30;99.90;;;;;;5005007;28;20053;-37
2023/08/03 02:28:59;;;;;;;4.70;1.40;;;16.30;99.90;;;;;;5004589;28;20053;-36
2023/08/03 02:31:25;;;;;;;7.30;1.25;;;16.30;99.90;;;;;;5003016;28;20061;-35
2023/08/03 02:33:50;;;;;;;6.68;1.23;;;16.30;99.90;;;;;;5008020;28;20817;-36
2023/08/03 02:36:16;;;;;;;6.85;1.30;;;16.40;99.90;;;;;;5011345;28;20115;-36
2023/08/03 02:38:42;;;;;;;5.13;1.33;;;16.40;99.90;;;;;;5007118;28;20049;-35
2023/08/03 02:41:07;;;;;;;6.53;1.10;;;16.40;99.90;;;;;;5003712;28;20054;-36
2023/08/03 02:43:33;;;;;;;6.53;1.23;;;16.40;99.90;;;;;;5003895;28;20487;-37
2023/08/03 02:45:58;;;;;;;5.60;1.40;;;16.30;99.90;;;;;;5001629;28;20050;-36
2023/08/03 02:48:24;;;;;;;4.85;1.08;;;16.30;99.90;;;;;;4987371;28;20046;-35
2023/08/03 02:50:50;;;;;;;6.68;1.33;;;16.30;99.90;;;;;;4999084;28;20430;-35
2023/08/03 02:53:15;;;;;;;7.97;1.52;;;16.40;99.90;;;;;;5006543;28;20049;-35
2023/08/03 02:55:41;;;;;;;6.32;1.30;;;16.40;99.90;;;;;;5001988;28;20061;-36
2023/08/03 02:58:06;;;;;;;8.77;1.40;;;16.40;99.90;;;;;;5003943;28;20065;-36
2023/08/03 03:00:32;;;;;;;8.23;1.20;;;16.30;99.90;;;;;;5006555;28;20053;-36
2023/08/03 03:02:58;;;;;;;5.82;1.70;;;16.30;99.90;;;;;;5003352;28;20193;-36
2023/08/03 03:05:23;;;;;;;9.88;1.35;;;16.30;99.90;;;;;;5007982;28;20604;-36
2023/08/03 03:07:49;;;;;;;6.78;1.10;;;16.40;99.90;;;;;;5001852;28;20136;-35
2023/08/03 03:10:15;;;;;;;7.50;1.13;;;16.40;99.90;;;;;;5003165;28;20113;-36
2023/08/03 03:12:41;;;;;;;5.38;1.23;;;16.40;99.90;;;;;;5004397;28;20042;-36
2023/08/03 03:15:07;;;;;;;6.00;1.38;;;16.30;99.90;;;;;;5007058;28;20046;-36
2023/08/03 03:17:33;;;;;;;13.68;2.33;;;16.40;99.90;;;;;;5003817;28;20062;-36
2023/08/03 03:19:58;;;;;;;5.88;0.90;;;16.40;99.90;;;;;;5003491;28;20420;-36
2023/08/03 03:22:24;;;;;;;7.47;1.00;;;16.30;99.90;;;;;;5009815;28;20053;-35
2023/08/03 03:24:50;;;;;;;7.18;0.95;;;16.30;99.90;;;;;;5007909;28;20054;-36
2023/08/03 03:27:16;;;;;;;5.65;1.00;;;16.30;99.90;;;;;;5004845;28;20050;-36
2023/08/03 03:29:41;;;;;;;4.13;0.88;;;16.30;99.90;;;;;;5005379;28;20068;-36
2023/08/03 03:32:07;;;;;;;8.85;1.10;;;16.20;99.90;;;;;;5002664;28;20463;-36
2023/08/03 03:34:33;;;;;;;7.13;1.10;;;16.20;99.90;;;;;;5009544;28;20415;-36
2023/08/03 03:36:58;;;;;;;6.40;1.00;;;16.20;99.90;;;;;;5003535;28;20137;-36
2023/08/03 03:39:24;;;;;;;7.35;0.98;;;16.20;99.90;;;;;;5009891;28;20060;-36
2023/08/03 03:41:50;;;;;;;7.78;1.10;;;16.20;99.90;;;;;;5004746;28;20046;-36
2023/08/03 03:44:16;;;;;;;5.97;0.90;;;16.10;99.90;;;;;;5004259;28;20108;-36
2023/08/03 03:46:41;;;;;;;6.60;0.88;;;16.10;99.90;;;;;;5006146;28;20054;-35
2023/08/03 03:49:07;;;;;;;7.65;0.90;;;16.10;99.90;;;;;;5006395;28;20041;-36
2023/08/03 03:51:32;;;;;;;5.32;1.23;;;16.00;99.90;;;;;;5006636;28;20522;-36
2023/08/03 03:53:58;;;;;;;3.63;0.80;;;16.00;99.90;;;;;;5001994;28;20149;-36
2023/08/03 03:56:24;;;;;;;6.95;1.83;;;16.00;99.90;;;;;;5002599;28;20058;-36
2023/08/03 03:58:49;;;;;;;5.63;0.75;;;16.00;99.90;;;;;;5006112;28;20046;-36
2023/08/03 04:01:15;;;;;;;8.02;1.20;;;16.00;99.90;;;;;;5003452;28;20053;-36
2023/08/03 04:03:40;;;;;;;6.93;1.10;;;16.00;99.90;;;;;;5002548;28;20112;-35
2023/08/03 04:06:06;;;;;;;8.88;1.35;;;16.00;99.90;;;;;;5002717;28;20117;-35
2023/08/03 04:08:32;;;;;;;6.43;1.10;;;16.00;99.90;;;;;;5002020;28;20050;-36
2023/08/03 04:10:57;;;;;;;4.10;1.02;;;16.00;99.90;;;;;;5001674;28;20386;-35
2023/08/03 04:13:23;;;;;;;9.98;1.25;;;16.10;99.90;;;;;;5006565;28;20466;-37
2023/08/03 04:15:48;;;;;;;8.02;1.55;;;16.10;99.90;;;;;;5005261;28;20129;-36
2023/08/03 04:18:14;;;;;;;6.00;1.40;;;16.10;99.90;;;;;;5008202;28;20524;-36
2023/08/03 04:20:40;;;;;;;7.20;1.70;;;16.10;99.90;;;;;;5004784;28;20055;-36
2023/08/03 04:23:06;;;;;;;5.47;1.98;;;16.20;99.90;;;;;;5004329;28;20056;-36
2023/08/03 04:25:32;;;;;;;5.80;1.50;;;16.20;99.90;;;;;;5009775;28;20064;-36
2023/08/03 04:27:57;;;;;;;2.60;1.50;;;16.20;99.90;;;;;;5006611;28;20052;-36
2023/08/03 04:30:23;;;;;;;7.82;2.15;;;16.30;99.90;;;;;;5013032;28;20053;-36
2023/08/03 04:32:48;;;;;;;6.07;1.70;;;16.30;99.90;;;;;;5007287;28;20653;-36
2023/08/03 04:35:14;;;;;;;6.05;1.90;;;16.30;99.90;;;;;;5006342;28;20889;-35
2023/08/03 04:37:40;;;;;;;5.45;1.58;;;16.40;99.90;;;;;;5009835;28;20422;-35
2023/08/03 04:40:06;;;;;;;6.72;1.48;;;16.30;99.90;;;;;;5010404;28;20050;-35
2023/08/03 04:42:32;;;;;;;4.25;1.40;;;16.40;99.90;;;;;;5004447;28;20053;-36
2023/08/03 04:44:57;;;;;;;9.93;1.60;;;16.40;99.90;;;;;;5006626;28;20046;-36
2023/08/03 04:47:23;;;;;;;6.00;1.90;;;16.40;99.90;;;;;;5008241;28;20502;-36
2023/08/03 04:49:49;;;;;;;6.75;1.77;;;16.50;99.90;;;;;;5010341;28;20050;-35
2023/08/03 04:52:14;;;;;;;3.53;1.52;;;16.60;99.90;;;;;;5004944;28;20115;-36
2023/08/03 04:54:40;;;;;;;6.45;1.80;;;16.50;99.90;;;;;;5009621;28;20140;-36
2023/08/03 04:57:06;;;;;;;6.10;1.55;;;16.60;99.90;;;;;;5004152;28;20096;-36
2023/08/03 04:59:31;;;;;;;9.48;2.00;;;16.60;99.90;;;;;;5007642;28;20384;-36
2023/08/03 05:01:57;;;;;;;5.75;1.75;;;16.60;99.90;;;;;;5004304;28;20141;-35
2023/08/03 05:04:22;;;;;;;5.35;2.38;;;16.60;99.90;;;;;;5005351;28;20057;-35
2023/08/03 05:06:48;;;;;;;6.75;1.60;;;16.70;99.90;;;;;;4992689;28;20081;-36
2023/08/03 05:09:14;;;;;;;5.25;1.40;;;16.60;99.90;;;;;;5006237;28;20081;-36
2023/08/03 05:11:40;;;;;;;4.03;1.45;;;16.70;99.90;;;;;;5003740;28;20046;-36
2023/08/03 05:14:05;;;;;;;6.07;1.70;;;16.70;99.90;;;;;;4990353;28;20052;-35
2023/08/03 05:16:31;;;;;;;7.15;1.60;;;16.70;99.90;;;;;;5002732;28;21472;-36
2023/08/03 05:18:56;;;;;;;5.65;1.75;;;16.70;99.90;;;;;;4993286;28;21739;-35
2023/08/03 05:21:22;;;;;;;6.93;1.80;;;16.60;99.90;;;;;;5001304;28;20434;-36
2023/08/03 05:23:48;;;;;;;9.65;1.30;;;16.60;99.90;;;;;;5006388;28;20054;-36
2023/08/03 05:26:14;;;;;;;7.53;1.95;;;16.60;99.90;;;;;;5005789;28;20462;-36
2023/08/03 05:28:40;;;;;;;4.65;1.73;;;16.60;99.90;;;;;;5005413;28;20187;-35
2023/08/03 05:31:05;;;;;;;4.93;2.05;;;16.70;99.90;;;;;;4999077;28;20046;-35
2023/08/03 05:33:35;;;;;;;6.40;1.73;;;16.80;99.90;;;;;;5005461;28;20121;-36
2023/08/03 05:36:01;;;;;;;6.80;1.70;;;16.90;99.90;;;;;;5006930;28;20057;-36
2023/08/03 05:38:27;;;;;;;6.72;2.15;;;16.90;99.90;;;;;;5008056;28;20050;-36
2023/08/03 05:40:53;;;;;;;6.22;2.10;;;17.00;99.90;;;;;;5002776;28;20062;-36
2023/08/03 05:43:24;;;;;;;5.15;1.80;;;17.10;99.90;;;;;;4964500;28;20146;-36
2023/08/03 05:45:53;;;;;;;12.02;2.45;;;17.10;99.90;;;;;;4996118;28;20495;-35
2023/08/03 05:48:20;;;;;;;7.18;3.03;;;17.10;99.90;;;;;;4995559;28;20073;-36
2023/08/03 05:50:51;;;;;;;11.85;2.42;;;17.10;99.90;;;;;;5010467;28;20111;-36
2023/08/03 05:53:18;;;;;;;7.70;2.40;;;17.10;99.90;;;;;;5011030;28;20050;-36
2023/08/03 05:55:44;;;;;;;5.75;2.50;;;17.00;99.90;;;;;;5014067;28;20461;-36
2023/08/03 05:58:16;;;;;;;4.53;2.33;;;17.00;99.90;;;;;;5006391;28;20073;-35
2023/08/03 06:00:45;;;;;;;4.78;2.00;;;17.00;99.90;;;;;;5007777;28;20115;-35
2023/08/03 06:03:16;;;;;;;6.82;2.35;;;17.00;99.90;;;;;;5010478;28;20144;-35
2023/08/03 06:05:46;;;;;;;5.85;2.35;;;17.00;99.90;;;;;;5011444;28;20048;-36
2023/08/03 06:08:19;;;;;;;8.90;2.90;;;17.00;99.90;;;;;;5007535;28;20514;-36
2023/08/03 06:10:53;;;;;;;6.97;2.80;;;17.00;99.90;;;;;;4996718;28;20065;-36
2023/08/03 06:13:27;;;;;;;8.88;2.90;;;17.00;99.90;;;;;;4987516;28;20433;-36
2023/08/03 06:15:53;;;;;;;8.65;3.00;;;17.10;99.90;;;;;;5011123;28;20111;-35
2023/08/03 06:18:19;;;;;;;8.52;3.20;;;17.10;99.90;;;;;;5007903;28;20058;-36
2023/08/03 06:20:50;;;;;;;11.40;2.97;;;17.20;99.90;;;;;;5011821;28;20056;-36
2023/08/03 06:23:21;;;;;;;8.27;3.17;;;17.20;99.90;;;;;;5011530;28;20061;-35
2023/08/03 06:25:48;;;;;;;10.77;3.22;;;17.30;99.90;;;;;;5016157;28;20057;-36
2023/08/03 06:28:18;;;;;;;10.68;3.55;;;17.30;99.90;;;;;;5010375;28;20057;-36
2023/08/03 06:30:45;;;;;;;6.35;2.83;;;17.30;99.90;;;;;;5019533;28;20160;-36
2023/08/03 06:33:14;;;;;;;7.40;3.10;;;17.40;99.90;;;;;;5005939;28;20053;-35
2023/08/03 06:35:44;;;;;;;9.50;3.40;;;17.40;99.90;;;;;;5011961;28;20061;-36
2023/08/03 06:38:14;;;;;;;8.05;3.22;;;17.50;99.90;;;;;;5009347;28;20050;-36
2023/08/03 06:40:41;;;;;;;6.47;2.53;;;17.50;99.90;;;;;;5012279;28;20057;-36
2023/08/03 06:43:08;;;;;;;8.13;3.03;;;17.60;99.90;;;;;;5006566;28;20049;-35
2023/08/03 06:45:34;;;;;;;5.30;2.47;;;17.70;99.90;;;;;;5015258;28;20056;-36
2023/08/03 06:48:01;;;;;;;9.23;3.10;;;17.80;99.90;;;;;;5013527;28;20072;-36
2023/08/03 06:50:29;;;;;;;6.90;1.98;;;17.80;99.90;;;;;;5005338;28;20054;-35
2023/08/03 06:52:56;;;;;;;8.63;2.63;;;17.90;99.90;;;;;;5006514;28;20116;-36
2023/08/03 06:55:21;;;;;;;7.25;2.47;;;18.00;99.90;;;;;;5010346;28;20141;-36
2023/08/03 06:57:47;;;;;;;6.78;2.40;;;18.00;99.90;;;;;;5013528;28;20050;-36
2023/08/03 07:00:14;;;;;;;5.88;2.00;;;18.10;99.90;;;;;;5008403;28;20137;-36
2023/08/03 07:02:40;;;;;;;6.88;1.88;;;18.20;99.90;;;;;;5008556;28;20054;-37
2023/08/03 07:05:06;;;;;;;4.65;1.60;;;18.20;99.90;;;;;;5006774;28;20503;-36
2023/08/03 07:07:33;;;;;;;4.50;1.60;;;18.20;99.90;;;;;;5011579;28;20137;-36
2023/08/03 07:10:01;;;;;;;4.75;1.60;;;18.20;99.90;;;;;;4988696;28;20136;-36
2023/08/03 07:12:27;;;;;;;4.00;1.60;;;18.30;99.90;;;;;;5007254;28;20057;-37
2023/08/03 07:14:53;;;;;;;6.60;1.75;;;18.30;99.90;;;;;;5012598;28;20049;-36
2023/08/03 07:17:19;;;;;;;6.93;1.65;;;18.40;99.90;;;;;;5009318;28;20045;-35
2023/08/03 07:19:50;;;;;;;5.03;1.38;;;18.50;99.90;;;;;;5009742;28;20053;-36
2023/08/03 07:22:17;;;;;;;5.45;1.45;;;18.60;99.90;;;;;;5016511;28;20442;-36
2023/08/03 07:24:42;;;;;;;4.95;1.50;;;18.70;99.90;;;;;;5014128;28;20058;-36
2023/08/03 07:27:08;;;;;;;6.25;1.70;;;18.80;99.90;;;;;;5012605;28;20050;-36
2023/08/03 07:29:37;;;;;;;8.13;1.40;;;18.90;99.90;;;;;;5009516;28;20049;-36
2023/08/03 07:32:03;;;;;;;4.50;1.95;;;19.00;99.90;;;;;;5010649;28;20103;-36
2023/08/03 07:34:29;;;;;;;5.30;1.70;;;19.00;99.90;;;;;;5014341;28;20058;-36
2023/08/03 07:36:56;;;;;;;3.55;1.00;;;19.10;99.90;;;;;;5012460;28;20076;-36
2023/08/03 07:39:23;;;;;;;4.68;1.30;;;19.10;99.90;;;;;;5018354;28;20045;-35
2023/08/03 07:41:49;;;;;;;3.08;1.30;;;19.10;99.90;;;;;;5015205;28;20054;-36
2023/08/03 07:44:15;;;;;;;5.10;1.88;;;19.00;99.90;;;;;;5010462;28;20046;-36
2023/08/03 07:46:42;;;;;;;4.35;1.80;;;19.00;99.90;;;;;;5010667;28;20057;-36
2023/08/03 07:49:07;;;;;;;4.70;1.20;;;19.10;99.90;;;;;;5013053;28;20048;-36
2023/08/03 07:51:33;;;;;;;4.28;1.35;;;19.20;99.90;;;;;;5012070;28;20034;-36
2023/08/03 07:53:59;;;;;;;3.13;0.82;;;19.30;99.90;;;;;;5012167;28;20116;-36
2023/08/03 07:56:24;;;;;;;4.68;0.80;;;19.30;99.90;;;;;;5010581;28;20672;-36
2023/08/03 07:58:53;;;;;;;1.45;0.50;;;19.20;99.90;;;;;;4995325;28;20053;-36
2023/08/03 08:01:20;;;;;;;5.60;1.17;;;19.30;99.90;;;;;;5000559;28;20500;-35
2023/08/03 08:03:46;;;;;;;3.92;0.70;;;19.40;99.90;;;;;;5018799;28;20057;-35
2023/08/03 08:06:16;;;;;;;3.22;0.93;;;19.40;99.90;;;;;;5015154;28;20053;-36
2023/08/03 08:08:43;;;;;;;2.55;0.80;;;19.30;99.90;;;;;;5010498;28;20062;-36
2023/08/03 08:11:09;;;;;;;3.63;0.70;;;19.30;99.90;;;;;;5019313;28;20141;-37
2023/08/03 08:13:35;;;;;;;3.35;0.90;;;19.40;99.90;;;;;;5013123;28;20057;-37
2023/08/03 08:16:01;;;;;;;2.33;0.60;;;19.40;99.90;;;;;;5010875;28;20080;-36
2023/08/03 08:18:28;;;;;;;2.63;0.75;;;19.50;99.90;;;;;;5015657;28;20108;-36
2023/08/03 08:21:04;;;;;;;4.35;1.38;;;19.60;99.90;;;;;;5009504;28;20049;-36
2023/08/03 08:23:30;;;;;;;4.03;0.88;;;19.60;99.90;;;;;;5009676;28;20074;-36
2023/08/03 08:25:56;;;;;;;2.50;0.82;;;19.70;99.90;;;;;;5019977;28;20067;-36
2023/08/03 08:28:23;;;;;;;3.20;0.65;;;19.70;99.90;;;;;;5015351;28;20132;-34
2023/08/03 08:30:48;;;;;;;4.10;0.73;;;19.70;99.90;;;;;;5017501;28;20132;-36
2023/08/03 08:33:15;;;;;;;4.32;1.50;;;19.70;99.90;;;;;;5015652;28;20485;-36
2023/08/03 08:35:42;;;;;;;2.53;0.50;;;19.80;99.90;;;;;;4993183;28;20050;-36
2023/08/03 08:38:12;;;;;;;1.35;0.40;;;19.80;99.90;;;;;;5013758;28;20149;-36
2023/08/03 08:40:41;;;;;;;3.28;0.40;;;19.90;99.90;;;;;;5014283;28;20049;-36
2023/08/03 08:43:08;;;;;;;1.13;0.60;;;20.10;99.90;;;;;;5009163;28;20077;-36
2023/08/03 08:45:35;;;;;;;3.53;0.93;;;20.30;99.90;;;;;;5017846;28;20057;-36
2023/08/03 08:48:01;;;;;;;0.63;0.30;;;20.40;99.90;;;;;;5013151;28;20050;-36
2023/08/03 08:50:26;;;;;;;4.90;0.82;;;20.40;99.90;;;;;;5019017;28;20069;-36
2023/08/03 08:52:53;;;;;;;2.38;0.55;;;20.40;99.90;;;;;;5017722;28;20503;-36
2023/08/03 08:55:21;;;;;;;4.80;0.77;;;20.50;99.90;;;;;;5013668;28;20045;-36
2023/08/03 08:57:47;;;;;;;2.08;0.40;;;20.60;99.90;;;;;;5016692;28;20084;-36
2023/08/03 09:00:14;;;;;;;1.40;0.40;;;20.60;99.90;;;;;;5010116;28;20053;-36
2023/08/03 09:02:40;;;;;;;2.63;0.63;;;20.60;99.90;;;;;;5011102;28;20073;-36
2023/08/03 09:05:24;;;;;;;2.25;0.40;;;20.60;99.90;;;;;;5014428;28;20068;-36
2023/08/03 09:08:06;;;;;;;2.80;0.80;;;20.70;99.90;;;;;;5009146;28;20415;-36
2023/08/03 09:10:46;;;;;;;4.53;0.82;;;20.70;99.90;;;;;;4997310;28;20136;-36
2023/08/03 09:13:26;;;;;;;2.42;0.40;;;20.50;99.90;;;;;;5013075;28;20053;-36
2023/08/03 09:15:53;;;;;;;3.92;0.60;;;20.30;99.90;;;;;;5011006;28;20080;-35
2023/08/03 09:18:22;;;;;;;4.00;0.65;;;20.40;99.90;;;;;;5017274;28;20510;-37
2023/08/03 09:20:48;;;;;;;3.30;0.50;;;20.50;99.90;;;;;;5019308;28;20079;-36
2023/08/03 09:23:28;;;;;;;1.40;0.30;;;20.60;99.90;;;;;;5012816;28;20045;-36
2023/08/03 09:25:53;;;;;;;1.60;0.30;;;20.70;99.90;;;;;;5007379;28;20140;-36
2023/08/03 09:28:19;;;;;;;2.83;0.30;;;20.70;99.90;;;;;;5010547;28;20140;-36
2023/08/03 09:30:52;;;;;;;1.83;0.30;;;20.80;99.90;;;;;;5017371;28;20050;-36
2023/08/03 09:33:18;;;;;;;3.20;0.40;;;20.90;99.90;;;;;;5017425;28;20483;-35
2023/08/03 09:35:45;;;;;;;2.90;0.52;;;21.00;99.90;;;;;;5018675;28;20065;-36
2023/08/03 09:38:23;;;;;;;2.75;0.40;;;21.00;99.90;;;;;;5011274;28;20054;-36
2023/08/03 09:40:50;;;;;;;5.15;0.85;;;21.20;99.90;;;;;;4993363;28;20060;-36
2023/08/03 09:43:17;;;;;;;4.47;0.65;;;21.30;99.90;;;;;;5007415;28;20471;-37
2023/08/03 09:45:45;;;;;;;3.33;0.60;;;21.30;99.90;;;;;;5008091;28;20180;-37
2023/08/03 09:48:12;;;;;;;3.42;0.60;;;21.40;99.90;;;;;;5009559;28;20046;-36
2023/08/03 09:50:40;;;;;;;1.85;0.70;;;21.20;99.90;;;;;;5008817;28;20507;-36
2023/08/03 09:53:12;;;;;;;2.25;0.57;;;21.20;99.90;;;;;;5013595;28;20050;-36
2023/08/03 09:55:44;;;;;;;3.72;0.60;;;21.10;99.90;;;;;;4992174;28;20053;-36
2023/08/03 09:58:15;;;;;;;3.38;0.95;;;21.10;99.90;;;;;;5017658;28;20526;-36
2023/08/03 10:00:44;;;;;;;4.40;0.70;;;21.20;99.90;;;;;;5014117;28;20053;-36
2023/08/03 10:03:14;;;;;;;3.63;0.77;;;21.30;99.90;;;;;;5014426;28;20056;-37
2023/08/03 10:05:47;;;;;;;4.35;0.93;;;21.40;99.90;;;;;;4998557;28;20050;-36
2023/08/03 10:08:39;;;;;;;3.67;0.70;;;21.40;99.90;;;;;;5010676;28;20081;-36
2023/08/03 10:11:09;;;;;;;2.00;0.70;;;21.60;99.90;;;;;;5000861;28;20084;-36
2023/08/03 10:13:39;;;;;;;2.78;0.68;;;21.60;99.90;;;;;;5007411;28;20050;-36
2023/08/03 10:16:05;;;;;;;2.38;0.70;;;21.70;99.90;;;;;;5015860;28;20057;-36
2023/08/03 10:18:33;;;;;;;1.92;0.98;;;21.70;99.90;;;;;;5014750;28;20064;-35
2023/08/03 10:21:00;;;;;;;2.70;0.70;;;21.80;99.90;;;;;;5015091;28;20120;-36
2023/08/03 10:23:26;;;;;;;2.17;0.60;;;21.90;99.90;;;;;;5021370;28;20423;-36
2023/08/03 10:25:53;;;;;;;2.38;0.60;;;22.00;99.90;;;;;;4993207;28;20103;-35
2023/08/03 10:28:20;;;;;;;1.98;0.68;;;21.70;99.90;;;;;;5015162;28;20046;-36
2023/08/03 10:31:14;;;;;;;4.47;0.70;;;21.60;99.90;;;;;;5012645;28;20046;-36
2023/08/03 10:33:49;;;;;;;4.00;0.50;;;21.30;99.90;;;;;;5005573;28;20045;-36
2023/08/03 10:36:35;;;;;;;3.33;0.60;;;21.00;99.90;;;;;;5012067;28;20057;-35
2023/08/03 10:39:01;;;;;;;3.78;0.68;;;20.80;99.90;;;;;;5009818;28;20132;-36
2023/08/03 10:41:38;;;;;;;3.25;0.50;;;20.70;99.90;;;;;;5009619;28;20552;-35
2023/08/03 10:44:07;;;;;;;2.80;0.60;;;20.90;99.90;;;;;;5014515;28;20069;-36
2023/08/03 10:46:40;;;;;;;2.75;0.50;;;21.20;99.90;;;;;;5019303;28;20060;-36
2023/08/03 10:49:21;;;;;;;3.53;0.50;;;21.60;99.90;;;;;;5007869;28;20518;-36
2023/08/03 10:52:15;;;;;;;3.67;0.40;;;22.00;99.90;;;;;;5002009;28;20045;-36
2023/08/03 10:54:40;;;;;;;2.35;0.30;;;22.10;99.90;;;;;;5010015;28;20072;-36
2023/08/03 10:57:14;;;;;;;2.65;0.40;;;21.80;99.90;;;;;;5016468;28;20092;-37
2023/08/03 10:59:40;;;;;;;3.17;0.57;;;21.30;99.90;;;;;;5008096;28;20415;-36
2023/08/03 11:02:25;;;;;;;2.25;0.65;;;20.80;99.90;;;;;;5010988;28;20072;-36
2023/08/03 11:04:55;;;;;;;2.10;0.70;;;20.40;99.90;;;;;;5008921;28;20060;-36
2023/08/03 11:07:23;;;;;;;1.48;0.40;;;20.30;99.90;;;;;;5006900;28;20050;-36
2023/08/03 11:09:52;;;;;;;4.28;0.85;;;20.50;99.90;;;;;;5017470;28;20144;-35
2023/08/03 11:12:18;;;;;;;3.20;0.85;;;20.70;99.90;;;;;;5007795;28;20494;-36
2023/08/03 11:14:46;;;;;;;5.70;1.10;;;20.90;99.90;;;;;;5014755;28;20335;-36
2023/08/03 11:17:18;;;;;;;3.40;0.70;;;20.80;99.90;;;;;;5014682;28;20082;-36
2023/08/03 11:19:43;;;;;;;4.30;0.88;;;20.70;99.90;;;;;;5004930;28;20419;-36
2023/08/03 11:22:11;;;;;;;7.47;0.60;;;20.50;99.90;;;;;;5009342;28;20050;-36
2023/08/03 11:24:37;;;;;;;6.80;1.05;;;20.30;99.90;;;;;;5012682;28;20041;-36
2023/08/03 11:27:04;;;;;;;3.92;0.82;;;20.20;99.90;;;;;;5011874;28;20072;-36
2023/08/03 11:29:33;;;;;;;5.85;1.10;;;20.30;99.90;;;;;;5011680;28;20132;-36
2023/08/03 11:31:59;;;;;;;3.75;0.90;;;20.40;99.90;;;;;;5013377;28;20053;-36
2023/08/03 11:34:24;;;;;;;4.10;0.80;;;20.40;99.90;;;;;;5003704;28;20056;-35
2023/08/03 11:36:51;;;;;;;4.00;0.68;;;20.50;99.90;;;;;;5019090;28;20472;-35
2023/08/03 11:39:19;;;;;;;5.25;0.60;;;20.60;99.90;;;;;;5014383;28;20056;-35
2023/08/03 11:41:46;;;;;;;3.97;0.57;;;20.50;99.90;;;;;;5017080;28;20575;-35
2023/08/03 11:44:12;;;;;;;2.08;0.50;;;20.40;99.90;;;;;;5013020;28;20380;-35
2023/08/03 11:46:38;;;;;;;1.23;0.40;;;20.30;99.90;;;;;;5022280;28;20100;-34
2023/08/03 11:49:04;;;;;;;3.00;0.63;;;20.40;99.90;;;;;;5017604;28;20049;-35
2023/08/03 11:51:37;;;;;;;2.80;0.75;;;20.50;99.90;;;;;;5018305;28;20136;-35
2023/08/03 11:54:07;;;;;;;4.65;0.70;;;20.60;99.90;;;;;;5021274;28;20100;-34
2023/08/03 11:56:34;;;;;;;3.17;0.55;;;20.40;99.90;;;;;;5008010;28;20104;-35
2023/08/03 11:59:04;;;;;;;5.68;0.65;;;20.30;99.90;;;;;;5009685;28;20141;-35
2023/08/03 12:01:30;;;;;;;1.98;0.45;;;20.20;99.90;;;;;;5014828;28;20136;-35
2023/08/03 12:04:09;;;;;;;3.10;0.70;;;20.10;99.90;;;;;;5012714;28;20498;-35
2023/08/03 12:06:50;;;;;;;3.40;0.77;;;20.10;99.90;;;;;;5009330;28;20050;-35
2023/08/03 12:09:26;;;;;;;2.03;0.40;;;20.00;99.90;;;;;;5016425;28;20050;-35
2023/08/03 12:12:01;;;;;;;3.75;0.60;;;20.00;99.90;;;;;;5017452;28;20534;-34
2023/08/03 12:14:27;;;;;;;3.78;0.80;;;20.10;99.90;;;;;;5011961;28;22639;-35
2023/08/03 12:16:52;;;;;;;5.28;0.70;;;20.10;99.90;;;;;;5014729;28;20135;-35
2023/08/03 12:19:19;;;;;;;5.68;0.60;;;20.20;99.90;;;;;;5014400;28;20601;-35
2023/08/03 12:21:45;;;;;;;3.13;0.80;;;20.10;99.90;;;;;;5003339;28;20049;-35
2023/08/03 12:24:11;;;;;;;5.60;0.75;;;20.10;99.90;;;;;;5014015;28;20049;-35
2023/08/03 12:26:37;;;;;;;2.53;1.10;;;20.30;99.90;;;;;;5017647;28;20046;-35
2023/08/03 12:29:04;;;;;;;4.40;0.82;;;20.80;99.90;;;;;;5017087;28;20041;-35
2023/08/03 12:31:30;;;;;;;4.70;0.80;;;20.90;99.90;;;;;;5021019;28;20061;-35
2023/08/03 12:33:56;;;;;;;6.00;0.82;;;20.80;99.90;;;;;;5015263;28;20499;-35
2023/08/03 12:36:23;;;;;;;4.72;1.05;;;20.80;99.90;;;;;;5016249;28;20116;-35
2023/08/03 12:38:48;;;;;;;3.47;0.85;;;21.00;99.90;;;;;;5015033;28;20054;-35
2023/08/03 12:41:14;;;;;;;5.18;0.90;;;21.20;99.90;;;;;;5014022;28;20065;-36
2023/08/03 12:43:40;;;;;;;6.32;0.70;;;21.30;99.90;;;;;;5016160;28;20095;-36
2023/08/03 12:46:06;;;;;;;2.40;0.52;;;21.10;99.90;;;;;;5018945;28;20053;-36